PWSweather.com
Personal Weather Stations
Station Observations
KNVELKO7
Elko, NV 89801

Elko, NV 89801

Lat: 40.963233, Lon: -115.592836

Elevation: 5230

Station Type: WS-2812

Latest ConditionsUpdated 5:53:40 PM PDT Thursday, Jul 30, 2015
Currently Today's Max Today's Min Today's Average
Temperature 92.3°F33.5°C 101.2°F38.4°C 44.6°F7.0°C 73.4°F23.0°C
Dew Point 28.0°F-2.2°C 48.9°F9.4°C 23.4°F-4.8°C 34.8°F1.6°C
Winds 9.6 mph WNW15.4 kmh WNW 14.3 mph WNW23.0 kmh WNW - 2.6 mph 4.2 kmh
Wind Gusts 12.1 mph19.5 kmh 16.3 mph26.2 kmh - -
Humidity 6% 54% 6% 29%
Pressure 30.22 in1023.4 mb 30.33 in1027.1 mb 30.22 in1023.4 mb -
Hour Temp Dew Point Humidity Winds Wind Gusts Pressure Precip Precip Rate Daily Precip Total
05:53 PM 92.3°F33.5°C 28.0°F-2.2°C 6% 9.6 mph WNW15.4 kmh WNW 12.1 mph19.5 kmh 30.22 in1023.4 mb 0.00 in0.0 mm 0.00 in0.0 mm 0.00 in0.0 mm
05:48 PM 92.9°F33.8°C 28.4°F-2.0°C 7% 8.3 mph NW13.4 kmh NW 12.1 mph19.5 kmh 30.22 in1023.4 mb 0.00 in0.0 mm 0.00 in0.0 mm 0.00 in0.0 mm
05:43 PM 93.6°F34.2°C 28.9°F-1.7°C 8% 4.9 mph NW7.9 kmh NW 12.8 mph20.6 kmh 30.22 in1023.4 mb 0.00 in0.0 mm 0.00 in0.0 mm 0.00 in0.0 mm
05:38 PM 94.0°F34.4°C 29.2°F-1.6°C 7% 6.7 mph SW10.8 kmh SW 14.3 mph23.0 kmh 30.22 in1023.4 mb 0.00 in0.0 mm 0.00 in0.0 mm 0.00 in0.0 mm
05:33 PM 94.7°F34.8°C 29.8°F-1.2°C 6% 13.4 mph WNW21.6 kmh WNW 14.3 mph23.0 kmh 30.22 in1023.4 mb 0.00 in0.0 mm 0.00 in0.0 mm 0.00 in0.0 mm
05:28 PM 95.9°F35.5°C 30.7°F-0.7°C 7% 6.3 mph WSW10.1 kmh WSW 6.7 mph10.8 kmh 30.22 in1023.4 mb 0.00 in0.0 mm 0.00 in0.0 mm 0.00 in0.0 mm
05:23 PM 96.1°F35.6°C 30.8°F-0.7°C 7% 4.5 mph NW7.2 kmh NW 8.5 mph13.7 kmh 30.23 in1023.7 mb 0.00 in0.0 mm 0.00 in0.0 mm 0.00 in0.0 mm
05:18 PM 96.3°F35.7°C 31.0°F-0.6°C 7% 3.1 mph WSW5.0 kmh WSW 8.5 mph13.7 kmh 30.23 in1023.7 mb 0.00 in0.0 mm 0.00 in0.0 mm 0.00 in0.0 mm
05:13 PM 96.7°F35.9°C 31.2°F-0.4°C 9% 3.2 mph SW5.1 kmh SW 6.7 mph10.8 kmh 30.22 in1023.4 mb 0.00 in0.0 mm 0.00 in0.0 mm 0.00 in0.0 mm
05:08 PM 96.8°F36.0°C 31.3°F-0.4°C 10% 6.5 mph SW10.5 kmh SW 6.7 mph10.8 kmh 30.22 in1023.4 mb 0.00 in0.0 mm 0.00 in0.0 mm 0.00 in0.0 mm
05:03 PM 96.3°F35.7°C 31.0°F-0.6°C 10% 4.3 mph SSW6.9 kmh SSW 6.9 mph11.1 kmh 30.23 in1023.7 mb 0.00 in0.0 mm 0.00 in0.0 mm 0.00 in0.0 mm
04:58 PM 96.1°F35.6°C 30.8°F-0.7°C 8% 5.7 mph SW9.2 kmh SW 6.9 mph11.1 kmh 30.23 in1023.7 mb 0.00 in0.0 mm 0.00 in0.0 mm 0.00 in0.0 mm
04:53 PM 95.4°F35.2°C 30.3°F-0.9°C 10% 0.9 mph WSW1.4 kmh WSW 9.8 mph15.8 kmh 30.23 in1023.7 mb 0.00 in0.0 mm 0.00 in0.0 mm 0.00 in0.0 mm
04:48 PM 95.0°F35.0°C 30.1°F-1.1°C 8% 6.9 mph SW11.1 kmh SW 12.1 mph19.5 kmh 30.23 in1023.7 mb 0.00 in0.0 mm 0.00 in0.0 mm 0.00 in0.0 mm
04:43 PM 95.0°F35.0°C 30.1°F-1.1°C 7% 11.0 mph W17.7 kmh W 12.1 mph19.5 kmh 30.23 in1023.7 mb 0.00 in0.0 mm 0.00 in0.0 mm 0.00 in0.0 mm
04:38 PM 94.9°F34.9°C 29.9°F-1.2°C 7% 4.9 mph W7.9 kmh W 15.2 mph24.5 kmh 30.23 in1023.7 mb 0.00 in0.0 mm 0.00 in0.0 mm 0.00 in0.0 mm
04:33 PM 95.4°F35.2°C 30.3°F-0.9°C 6% 14.3 mph WNW23.0 kmh WNW 15.2 mph24.5 kmh 30.23 in1023.7 mb 0.00 in0.0 mm 0.00 in0.0 mm 0.00 in0.0 mm
04:28 PM 94.9°F34.9°C 29.9°F-1.2°C 8% 2.5 mph SW4.0 kmh SW 16.3 mph26.2 kmh 30.23 in1023.7 mb 0.00 in0.0 mm 0.00 in0.0 mm 0.00 in0.0 mm
04:23 PM 94.7°F34.8°C 29.8°F-1.2°C 7% 5.1 mph WNW8.2 kmh WNW 16.3 mph26.2 kmh 30.23 in1023.7 mb 0.00 in0.0 mm 0.00 in0.0 mm 0.00 in0.0 mm
04:18 PM 95.2°F35.1°C 30.2°F-1.0°C 6% 12.4 mph W20.0 kmh W 16.3 mph26.2 kmh 30.23 in1023.7 mb 0.00 in0.0 mm 0.00 in0.0 mm 0.00 in0.0 mm
04:13 PM 95.4°F35.2°C 30.3°F-0.9°C 6% 12.3 mph W19.8 kmh W 15.7 mph25.3 kmh 30.23 in1023.7 mb 0.00 in0.0 mm 0.00 in0.0 mm 0.00 in0.0 mm
04:08 PM 96.1°F35.6°C 30.8°F-0.7°C 7% 12.0 mph W19.3 kmh W 13.9 mph22.4 kmh 30.23 in1023.7 mb 0.00 in0.0 mm 0.00 in0.0 mm 0.00 in0.0 mm
04:03 PM 96.7°F35.9°C 31.2°F-0.4°C 7% 9.5 mph W15.3 kmh W 9.8 mph15.8 kmh 30.23 in1023.7 mb 0.00 in0.0 mm 0.00 in0.0 mm 0.00 in0.0 mm
03:57 PM 97.0°F36.1°C 31.5°F-0.3°C 8% 4.4 mph NW7.1 kmh NW 8.5 mph13.7 kmh 30.23 in1023.7 mb 0.00 in0.0 mm 0.00 in0.0 mm 0.00 in0.0 mm
03:52 PM 97.4°F36.3°C 31.8°F-0.1°C 8% 6.4 mph W10.3 kmh W 8.5 mph13.7 kmh 30.24 in1024.0 mb 0.00 in0.0 mm 0.00 in0.0 mm 0.00 in0.0 mm
03:47 PM 98.3°F36.8°C 32.5°F0.3°C 8% 6.5 mph NW10.5 kmh NW 8.5 mph13.7 kmh 30.24 in1024.0 mb 0.00 in0.0 mm 0.00 in0.0 mm 0.00 in0.0 mm
03:42 PM 99.0°F37.2°C 33.0°F0.6°C 10% 6.3 mph N10.1 kmh N 7.8 mph12.6 kmh 30.24 in1024.0 mb 0.00 in0.0 mm 0.00 in0.0 mm 0.00 in0.0 mm
03:38 PM 99.4°F37.4°C 36.9°F2.7°C 12% 1.3 mph WSW2.1 kmh WSW 7.4 mph11.9 kmh 30.25 in1024.4 mb 0.00 in0.0 mm 0.00 in0.0 mm 0.00 in0.0 mm
03:33 PM 98.8°F37.1°C 36.6°F2.6°C 12% 5.3 mph SSW8.5 kmh SSW 7.4 mph11.9 kmh 30.25 in1024.4 mb 0.00 in0.0 mm 0.00 in0.0 mm 0.00 in0.0 mm
03:28 PM 98.8°F37.1°C 34.8°F1.6°C 11% 2.3 mph SW3.7 kmh SW 5.4 mph8.7 kmh 30.25 in1024.4 mb 0.00 in0.0 mm 0.00 in0.0 mm 0.00 in0.0 mm
03:23 PM 99.2°F37.3°C 35.0°F1.7°C 11% 4.9 mph NW7.9 kmh NW 5.1 mph8.2 kmh 30.25 in1024.4 mb 0.00 in0.0 mm 0.00 in0.0 mm 0.00 in0.0 mm
03:18 PM 99.5°F37.5°C 44.3°F6.8°C 16% 1.7 mph S2.7 kmh S 8.5 mph13.7 kmh 30.25 in1024.4 mb 0.00 in0.0 mm 0.00 in0.0 mm 0.00 in0.0 mm
03:13 PM 98.6°F37.0°C 38.2°F3.4°C 13% 3.9 mph SW6.3 kmh SW 9.6 mph15.4 kmh 30.25 in1024.4 mb 0.00 in0.0 mm 0.00 in0.0 mm 0.00 in0.0 mm
03:08 PM 99.9°F37.7°C 35.6°F2.0°C 11% 5.1 mph WSW8.2 kmh WSW 9.6 mph15.4 kmh 30.25 in1024.4 mb 0.00 in0.0 mm 0.00 in0.0 mm 0.00 in0.0 mm
03:03 PM 101.2°F38.4°C 38.4°F3.6°C 12% 4.3 mph WSW6.9 kmh WSW 6.5 mph10.5 kmh 30.25 in1024.4 mb 0.00 in0.0 mm 0.00 in0.0 mm 0.00 in0.0 mm
02:57 PM 101.2°F38.4°C 42.0°F5.6°C 14% 2.5 mph SSE4.0 kmh SSE 4.3 mph6.9 kmh 30.26 in1024.7 mb 0.00 in0.0 mm 0.00 in0.0 mm 0.00 in0.0 mm
02:52 PM 101.0°F38.3°C 41.8°F5.4°C 14% 1.1 mph NE1.8 kmh NE 6.5 mph10.5 kmh 30.26 in1024.7 mb 0.00 in0.0 mm 0.00 in0.0 mm 0.00 in0.0 mm
02:47 PM 100.1°F37.8°C 44.7°F7.1°C 16% 0.6 mph S1.0 kmh S 9.2 mph14.8 kmh 30.26 in1024.7 mb 0.00 in0.0 mm 0.00 in0.0 mm 0.00 in0.0 mm
02:42 PM 99.7°F37.6°C 44.5°F6.9°C 16% 7.6 mph S12.2 kmh S 9.2 mph14.8 kmh 30.26 in1024.7 mb 0.00 in0.0 mm 0.00 in0.0 mm 0.00 in0.0 mm
02:37 PM 99.4°F37.4°C 44.1°F6.7°C 16% 3.3 mph SE5.3 kmh SE 10.7 mph17.2 kmh 30.26 in1024.7 mb 0.00 in0.0 mm 0.00 in0.0 mm 0.00 in0.0 mm
02:32 PM 98.8°F37.1°C 40.2°F4.6°C 14% 5.0 mph S8.0 kmh S 10.7 mph17.2 kmh 30.27 in1025.1 mb 0.00 in0.0 mm 0.00 in0.0 mm 0.00 in0.0 mm
02:27 PM 99.2°F37.3°C 40.4°F4.7°C 14% 6.2 mph SW10.0 kmh SW 8.1 mph13.0 kmh 30.26 in1024.7 mb 0.00 in0.0 mm 0.00 in0.0 mm 0.00 in0.0 mm
02:22 PM 99.0°F37.2°C 40.2°F4.6°C 14% 0.9 mph WSW1.4 kmh WSW 8.5 mph13.7 kmh 30.27 in1025.1 mb 0.00 in0.0 mm 0.00 in0.0 mm 0.00 in0.0 mm
02:17 PM 99.5°F37.5°C 46.1°F7.8°C 17% 6.6 mph SE10.6 kmh SE 9.4 mph15.1 kmh 30.27 in1025.1 mb 0.00 in0.0 mm 0.00 in0.0 mm 0.00 in0.0 mm
02:12 PM 99.4°F37.4°C 44.1°F6.7°C 16% 8.9 mph SSE14.3 kmh SSE 10.5 mph16.9 kmh 30.27 in1025.1 mb 0.00 in0.0 mm 0.00 in0.0 mm 0.00 in0.0 mm
02:08 PM 99.2°F37.3°C 44.0°F6.7°C 16% 3.7 mph SE6.0 kmh SE 10.5 mph16.9 kmh 30.27 in1025.1 mb 0.00 in0.0 mm 0.00 in0.0 mm 0.00 in0.0 mm
02:03 PM 99.4°F37.4°C 44.1°F6.7°C 16% 10.4 mph S16.7 kmh S 10.5 mph16.9 kmh 30.27 in1025.1 mb 0.00 in0.0 mm 0.00 in0.0 mm 0.00 in0.0 mm
01:57 PM 98.1°F36.7°C 41.3°F5.2°C 15% 0.4 mph SSW0.6 kmh SSW 12.8 mph20.6 kmh 30.28 in1025.4 mb 0.00 in0.0 mm 0.00 in0.0 mm 0.00 in0.0 mm
01:52 PM 97.7°F36.5°C 41.0°F5.0°C 15% 9.6 mph SSW15.4 kmh SSW 12.8 mph20.6 kmh 30.28 in1025.4 mb 0.00 in0.0 mm 0.00 in0.0 mm 0.00 in0.0 mm
01:47 PM 97.2°F36.2°C 40.6°F4.8°C 15% 8.8 mph SW14.2 kmh SW 12.1 mph19.5 kmh 30.28 in1025.4 mb 0.00 in0.0 mm 0.00 in0.0 mm 0.00 in0.0 mm
01:42 PM 96.1°F35.6°C 36.2°F2.3°C 13% 3.3 mph SW5.3 kmh SW 8.3 mph13.4 kmh 30.28 in1025.4 mb 0.00 in0.0 mm 0.00 in0.0 mm 0.00 in0.0 mm
01:37 PM 95.9°F35.5°C 34.3°F1.3°C 12% 2.2 mph NNW3.5 kmh NNW 8.3 mph13.4 kmh 30.28 in1025.4 mb 0.00 in0.0 mm 0.00 in0.0 mm 0.00 in0.0 mm
01:32 PM 96.1°F35.6°C 34.4°F1.3°C 12% 1.8 mph NNW2.9 kmh NNW 7.8 mph12.6 kmh 30.28 in1025.4 mb 0.00 in0.0 mm 0.00 in0.0 mm 0.00 in0.0 mm
01:27 PM 97.2°F36.2°C 37.0°F2.8°C 13% 5.6 mph N9.0 kmh N 7.6 mph12.2 kmh 30.29 in1025.7 mb 0.00 in0.0 mm 0.00 in0.0 mm 0.00 in0.0 mm
01:22 PM 97.6°F36.4°C 42.7°F5.9°C 16% 5.8 mph S9.3 kmh S 7.8 mph12.6 kmh 30.28 in1025.4 mb 0.00 in0.0 mm 0.00 in0.0 mm 0.00 in0.0 mm
01:17 PM 98.1°F36.7°C 43.1°F6.2°C 16% 5.8 mph SW9.3 kmh SW 9.8 mph15.8 kmh 30.28 in1025.4 mb 0.00 in0.0 mm 0.00 in0.0 mm 0.00 in0.0 mm
01:12 PM 98.3°F36.8°C 41.5°F5.3°C 15% 7.3 mph S11.7 kmh S 9.8 mph15.8 kmh 30.29 in1025.7 mb 0.00 in0.0 mm 0.00 in0.0 mm 0.00 in0.0 mm
01:07 PM 98.3°F36.8°C 41.5°F5.3°C 15% 2.9 mph SSW4.7 kmh SSW 6.9 mph11.1 kmh 30.29 in1025.7 mb 0.00 in0.0 mm 0.00 in0.0 mm 0.00 in0.0 mm
01:02 PM 97.2°F36.2°C 42.4°F5.8°C 16% 0.2 mph ESE0.3 kmh ESE 6.9 mph11.1 kmh 30.29 in1025.7 mb 0.00 in0.0 mm 0.00 in0.0 mm 0.00 in0.0 mm
12:57 PM 96.1°F35.6°C 39.8°F4.3°C 15% 0.3 mph SE0.5 kmh SE 5.4 mph8.7 kmh 30.29 in1025.7 mb 0.00 in0.0 mm 0.00 in0.0 mm 0.00 in0.0 mm
12:52 PM 97.0°F36.1°C 36.9°F2.7°C 13% 2.9 mph W4.7 kmh W 5.4 mph8.7 kmh 30.29 in1025.7 mb 0.00 in0.0 mm 0.00 in0.0 mm 0.00 in0.0 mm
12:47 PM 98.1°F36.7°C 44.9°F7.2°C 17% 3.8 mph SW6.1 kmh SW 6.9 mph11.1 kmh 30.29 in1025.7 mb 0.00 in0.0 mm 0.00 in0.0 mm 0.00 in0.0 mm
12:42 PM 97.7°F36.5°C 42.8°F6.0°C 16% 2.5 mph S4.0 kmh S 6.9 mph11.1 kmh 30.30 in1026.1 mb 0.00 in0.0 mm 0.00 in0.0 mm 0.00 in0.0 mm
12:37 PM 97.9°F36.6°C 43.0°F6.1°C 16% 1.5 mph ESE2.4 kmh ESE 8.5 mph13.7 kmh 30.30 in1026.1 mb 0.00 in0.0 mm 0.00 in0.0 mm 0.00 in0.0 mm
12:32 PM 98.1°F36.7°C 44.9°F7.2°C 17% 4.3 mph SSW6.9 kmh SSW 8.5 mph13.7 kmh 30.30 in1026.1 mb 0.00 in0.0 mm 0.00 in0.0 mm 0.00 in0.0 mm
12:27 PM 98.3°F36.8°C 45.1°F7.3°C 17% 5.7 mph SE9.2 kmh SE 6.5 mph10.5 kmh 30.30 in1026.1 mb 0.00 in0.0 mm 0.00 in0.0 mm 0.00 in0.0 mm
12:22 PM 97.9°F36.6°C 44.8°F7.1°C 17% 4.2 mph SSE6.8 kmh SSE 6.5 mph10.5 kmh 30.30 in1026.1 mb 0.00 in0.0 mm 0.00 in0.0 mm 0.00 in0.0 mm
12:17 PM 97.7°F36.5°C 48.2°F9.0°C 19% 1.4 mph NE2.3 kmh NE 4.5 mph7.2 kmh 30.30 in1026.1 mb 0.00 in0.0 mm 0.00 in0.0 mm 0.00 in0.0 mm
12:12 PM 97.0°F36.1°C 47.7°F8.7°C 19% 1.0 mph SE1.6 kmh SE 4.9 mph7.9 kmh 30.30 in1026.1 mb 0.00 in0.0 mm 0.00 in0.0 mm 0.00 in0.0 mm
12:07 PM 96.8°F36.0°C 47.5°F8.6°C 19% 4.2 mph SSE6.8 kmh SSE 4.9 mph7.9 kmh 30.30 in1026.1 mb 0.00 in0.0 mm 0.00 in0.0 mm 0.00 in0.0 mm
12:02 PM 96.3°F35.7°C 48.9°F9.4°C 20% 3.3 mph S5.3 kmh S 6.3 mph10.1 kmh 30.30 in1026.1 mb 0.00 in0.0 mm 0.00 in0.0 mm 0.00 in0.0 mm
11:56 AM 95.9°F35.5°C 46.7°F8.2°C 19% 4.9 mph SSE7.9 kmh SSE 6.3 mph10.1 kmh 30.30 in1026.1 mb 0.00 in0.0 mm 0.00 in0.0 mm 0.00 in0.0 mm
11:52 AM 95.4°F35.2°C 48.1°F8.9°C 20% 3.3 mph SE5.3 kmh SE 5.1 mph8.2 kmh 30.30 in1026.1 mb 0.00 in0.0 mm 0.00 in0.0 mm 0.00 in0.0 mm
11:47 AM 94.7°F34.8°C 45.6°F7.6°C 19% 1.5 mph ESE2.4 kmh ESE 3.4 mph5.5 kmh 30.30 in1026.1 mb 0.00 in0.0 mm 0.00 in0.0 mm 0.00 in0.0 mm
11:42 AM 94.3°F34.6°C 47.2°F8.4°C 20% Calm Calm 3.4 mph5.5 kmh 30.30 in1026.1 mb 0.00 in0.0 mm 0.00 in0.0 mm 0.00 in0.0 mm
11:37 AM 93.8°F34.3°C 47.8°F8.8°C 21% 2.6 mph SW4.2 kmh SW 5.1 mph8.2 kmh 30.31 in1026.4 mb 0.00 in0.0 mm 0.00 in0.0 mm 0.00 in0.0 mm
11:32 AM 93.4°F34.1°C 46.5°F8.1°C 20% 1.4 mph SSW2.3 kmh SSW 5.8 mph9.3 kmh 30.31 in1026.4 mb 0.00 in0.0 mm 0.00 in0.0 mm 0.00 in0.0 mm
11:27 AM 93.2°F34.0°C 44.5°F6.9°C 19% 2.8 mph SSE4.5 kmh SSE 5.8 mph9.3 kmh 30.31 in1026.4 mb 0.00 in0.0 mm 0.00 in0.0 mm 0.00 in0.0 mm
11:22 AM 93.2°F34.0°C 47.3°F8.5°C 21% 3.0 mph SW4.8 kmh SW 5.6 mph9.0 kmh 30.31 in1026.4 mb 0.00 in0.0 mm 0.00 in0.0 mm 0.00 in0.0 mm
11:17 AM 92.9°F33.8°C 47.1°F8.4°C 21% 1.5 mph SSE2.4 kmh SSE 6.0 mph9.7 kmh 30.31 in1026.4 mb 0.00 in0.0 mm 0.00 in0.0 mm 0.00 in0.0 mm
11:12 AM 92.2°F33.4°C 48.7°F9.3°C 23% 5.2 mph SE8.4 kmh SE 6.0 mph9.7 kmh 30.31 in1026.4 mb 0.00 in0.0 mm 0.00 in0.0 mm 0.00 in0.0 mm
11:07 AM 92.0°F33.3°C 47.4°F8.6°C 22% 4.0 mph SE6.4 kmh SE 5.4 mph8.7 kmh 30.31 in1026.4 mb 0.00 in0.0 mm 0.00 in0.0 mm 0.00 in0.0 mm
11:02 AM 91.1°F32.8°C 47.8°F8.8°C 23% 2.0 mph SSW3.2 kmh SSW 4.7 mph7.6 kmh 30.31 in1026.4 mb 0.00 in0.0 mm 0.00 in0.0 mm 0.00 in0.0 mm
10:56 AM 89.8°F32.1°C 45.7°F7.6°C 22% 2.1 mph SSE3.4 kmh SSE 4.0 mph6.4 kmh 30.31 in1026.4 mb 0.00 in0.0 mm 0.00 in0.0 mm 0.00 in0.0 mm
10:51 AM 88.9°F31.6°C 41.0°F5.0°C 19% Calm Calm 4.7 mph7.6 kmh 30.31 in1026.4 mb 0.00 in0.0 mm 0.00 in0.0 mm 0.00 in0.0 mm
10:46 AM 88.2°F31.2°C 43.3°F6.3°C 21% 1.8 mph E2.9 kmh E 4.7 mph7.6 kmh 30.31 in1026.4 mb 0.00 in0.0 mm 0.00 in0.0 mm 0.00 in0.0 mm
10:41 AM 87.5°F30.8°C 42.7°F5.9°C 21% 0.2 mph ENE0.3 kmh ENE 2.5 mph4.0 kmh 30.31 in1026.4 mb 0.00 in0.0 mm 0.00 in0.0 mm 0.00 in0.0 mm
10:36 AM 87.7°F30.9°C 42.8°F6.0°C 21% 2.2 mph NW3.5 kmh NW 2.2 mph3.5 kmh 30.32 in1026.8 mb 0.00 in0.0 mm 0.00 in0.0 mm 0.00 in0.0 mm
10:31 AM 87.5°F30.8°C 43.7°F6.5°C 22% 1.7 mph N2.7 kmh N 2.2 mph3.5 kmh 30.32 in1026.8 mb 0.00 in0.0 mm 0.00 in0.0 mm 0.00 in0.0 mm
10:26 AM 86.8°F30.4°C 45.3°F7.4°C 24% 1.5 mph SSW2.4 kmh SSW 1.8 mph2.9 kmh 30.31 in1026.4 mb 0.00 in0.0 mm 0.00 in0.0 mm 0.00 in0.0 mm
10:22 AM 86.0°F30.0°C 44.6°F7.0°C 24% 0.3 mph SSW0.5 kmh SSW 5.8 mph9.3 kmh 30.31 in1026.4 mb 0.00 in0.0 mm 0.00 in0.0 mm 0.00 in0.0 mm
10:17 AM 85.5°F29.7°C 43.1°F6.2°C 23% 1.8 mph ENE2.9 kmh ENE 5.8 mph9.3 kmh 30.31 in1026.4 mb 0.00 in0.0 mm 0.00 in0.0 mm 0.00 in0.0 mm
10:12 AM 85.1°F29.5°C 44.9°F7.2°C 25% 0.7 mph E1.1 kmh E 4.9 mph7.9 kmh 30.31 in1026.4 mb 0.00 in0.0 mm 0.00 in0.0 mm 0.00 in0.0 mm
10:07 AM 84.4°F29.1°C 44.4°F6.9°C 25% 1.2 mph SE1.9 kmh SE 5.4 mph8.7 kmh 30.31 in1026.4 mb 0.00 in0.0 mm 0.00 in0.0 mm 0.00 in0.0 mm
10:02 AM 83.9°F28.8°C 47.1°F8.4°C 28% 4.2 mph SE6.8 kmh SE 5.4 mph8.7 kmh 30.32 in1026.8 mb 0.00 in0.0 mm 0.00 in0.0 mm 0.00 in0.0 mm
09:56 AM 82.8°F28.2°C 45.1°F7.3°C 27% 0.9 mph SSW1.4 kmh SSW 2.2 mph3.5 kmh 30.32 in1026.8 mb 0.00 in0.0 mm 0.00 in0.0 mm 0.00 in0.0 mm
09:51 AM 82.1°F27.8°C 44.5°F6.9°C 27% 1.1 mph SE1.8 kmh SE 4.0 mph6.4 kmh 30.32 in1026.8 mb 0.00 in0.0 mm 0.00 in0.0 mm 0.00 in0.0 mm
09:46 AM 81.7°F27.6°C 46.3°F7.9°C 29% 2.9 mph ESE4.7 kmh ESE 4.0 mph6.4 kmh 30.32 in1026.8 mb 0.00 in0.0 mm 0.00 in0.0 mm 0.00 in0.0 mm
09:41 AM 81.0°F27.2°C 44.6°F7.0°C 28% 1.0 mph SSE1.6 kmh SSE 2.7 mph4.3 kmh 30.32 in1026.8 mb 0.00 in0.0 mm 0.00 in0.0 mm 0.00 in0.0 mm
09:36 AM 80.3°F26.8°C 46.1°F7.8°C 30% 1.1 mph SE1.8 kmh SE 2.2 mph3.5 kmh 30.32 in1026.8 mb 0.00 in0.0 mm 0.00 in0.0 mm 0.00 in0.0 mm
09:31 AM 79.6°F26.4°C 47.0°F8.3°C 32% 1.7 mph S2.7 kmh S 2.2 mph3.5 kmh 30.32 in1026.8 mb 0.00 in0.0 mm 0.00 in0.0 mm 0.00 in0.0 mm
09:26 AM 78.5°F25.8°C 46.1°F7.8°C 32% 1.2 mph SE1.9 kmh SE 2.2 mph3.5 kmh 30.32 in1026.8 mb 0.00 in0.0 mm 0.00 in0.0 mm 0.00 in0.0 mm
09:21 AM 77.4°F25.2°C 45.2°F7.3°C 32% 0.4 mph SE0.6 kmh SE 1.6 mph2.6 kmh 30.32 in1026.8 mb 0.00 in0.0 mm 0.00 in0.0 mm 0.00 in0.0 mm
09:16 AM 76.9°F24.9°C 44.0°F6.7°C 31% 0.7 mph WSW1.1 kmh WSW 1.8 mph2.9 kmh 30.32 in1026.8 mb 0.00 in0.0 mm 0.00 in0.0 mm 0.00 in0.0 mm
09:11 AM 76.0°F24.4°C 45.5°F7.5°C 34% 0.2 mph SSE0.3 kmh SSE 1.8 mph2.9 kmh 30.32 in1026.8 mb 0.00 in0.0 mm 0.00 in0.0 mm 0.00 in0.0 mm
09:06 AM 75.2°F24.0°C 44.8°F7.1°C 34% 0.4 mph SE0.6 kmh SE 2.5 mph4.0 kmh 30.32 in1026.8 mb 0.00 in0.0 mm 0.00 in0.0 mm 0.00 in0.0 mm
09:01 AM 73.8°F23.2°C 44.3°F6.8°C 35% 1.3 mph SE2.1 kmh SE 2.5 mph4.0 kmh 30.33 in1027.1 mb 0.00 in0.0 mm 0.00 in0.0 mm 0.00 in0.0 mm
08:56 AM 73.1°F22.8°C 43.7°F6.5°C 35% 0.5 mph SE0.8 kmh SE 1.6 mph2.6 kmh 30.33 in1027.1 mb 0.00 in0.0 mm 0.00 in0.0 mm 0.00 in0.0 mm
08:51 AM 72.0°F22.2°C 43.5°F6.4°C 36% 0.4 mph SW0.6 kmh SW 1.8 mph2.9 kmh 30.33 in1027.1 mb 0.00 in0.0 mm 0.00 in0.0 mm 0.00 in0.0 mm
08:46 AM 70.9°F21.6°C 41.8°F5.4°C 35% 0.9 mph S1.4 kmh S 1.8 mph2.9 kmh 30.33 in1027.1 mb 0.00 in0.0 mm 0.00 in0.0 mm 0.00 in0.0 mm
08:41 AM 70.4°F21.3°C 40.5°F4.7°C 34% 0.3 mph WSW0.5 kmh WSW 2.7 mph4.3 kmh 30.33 in1027.1 mb 0.00 in0.0 mm 0.00 in0.0 mm 0.00 in0.0 mm
08:36 AM 70.0°F21.1°C 41.7°F5.4°C 36% 1.5 mph SW2.4 kmh SW 2.7 mph4.3 kmh 30.33 in1027.1 mb 0.00 in0.0 mm 0.00 in0.0 mm 0.00 in0.0 mm
08:31 AM 69.8°F21.0°C 43.0°F6.1°C 38% 1.1 mph WSW1.8 kmh WSW 2.9 mph4.7 kmh 30.33 in1027.1 mb 0.00 in0.0 mm 0.00 in0.0 mm 0.00 in0.0 mm
08:26 AM 68.9°F20.5°C 42.9°F6.1°C 39% 1.6 mph SSW2.6 kmh SSW 2.9 mph4.7 kmh 30.33 in1027.1 mb 0.00 in0.0 mm 0.00 in0.0 mm 0.00 in0.0 mm
08:21 AM 68.0°F20.0°C 42.8°F6.0°C 40% 0.3 mph SSE0.5 kmh SSE 2.5 mph4.0 kmh 30.33 in1027.1 mb 0.00 in0.0 mm 0.00 in0.0 mm 0.00 in0.0 mm
08:16 AM 67.0°F19.4°C 41.1°F5.1°C 39% 0.8 mph SSE1.3 kmh SSE 2.7 mph4.3 kmh 30.33 in1027.1 mb 0.00 in0.0 mm 0.00 in0.0 mm 0.00 in0.0 mm
08:11 AM 65.9°F18.8°C 40.1°F4.5°C 39% 2.3 mph SE3.7 kmh SE 3.4 mph5.5 kmh 30.33 in1027.1 mb 0.00 in0.0 mm 0.00 in0.0 mm 0.00 in0.0 mm
08:06 AM 65.0°F18.3°C 40.1°F4.5°C 40% 0.4 mph SE0.6 kmh SE 3.4 mph5.5 kmh 30.33 in1027.1 mb 0.00 in0.0 mm 0.00 in0.0 mm 0.00 in0.0 mm
08:01 AM 63.9°F17.7°C 39.2°F4.0°C 40% 2.0 mph SE3.2 kmh SE 3.4 mph5.5 kmh 30.33 in1027.1 mb 0.00 in0.0 mm 0.00 in0.0 mm 0.00 in0.0 mm
07:55 AM 63.0°F17.2°C 38.9°F3.8°C 41% 2.5 mph SE4.0 kmh SE 2.7 mph4.3 kmh 30.33 in1027.1 mb 0.00 in0.0 mm 0.00 in0.0 mm 0.00 in0.0 mm
07:50 AM 61.9°F16.6°C 37.9°F3.3°C 41% 1.5 mph E2.4 kmh E 3.6 mph5.8 kmh 30.33 in1027.1 mb 0.00 in0.0 mm 0.00 in0.0 mm 0.00 in0.0 mm
07:45 AM 61.0°F16.1°C 37.1°F2.8°C 41% 2.5 mph NE4.0 kmh NE 3.6 mph5.8 kmh 30.33 in1027.1 mb 0.00 in0.0 mm 0.00 in0.0 mm 0.00 in0.0 mm
07:41 AM 60.1°F15.6°C 36.9°F2.7°C 42% 1.1 mph NE1.8 kmh NE 3.1 mph5.0 kmh 30.32 in1026.8 mb 0.00 in0.0 mm 0.00 in0.0 mm 0.00 in0.0 mm
07:36 AM 59.2°F15.1°C 37.2°F2.9°C 44% 2.2 mph NE3.5 kmh NE 2.9 mph4.7 kmh 30.32 in1026.8 mb 0.00 in0.0 mm 0.00 in0.0 mm 0.00 in0.0 mm
07:31 AM 58.3°F14.6°C 37.0°F2.8°C 45% 1.5 mph ESE2.4 kmh ESE 4.3 mph6.9 kmh 30.32 in1026.8 mb 0.00 in0.0 mm 0.00 in0.0 mm 0.00 in0.0 mm
07:26 AM 57.1°F13.9°C 36.4°F2.4°C 46% 1.7 mph ESE2.7 kmh ESE 4.3 mph6.9 kmh 30.32 in1026.8 mb 0.00 in0.0 mm 0.00 in0.0 mm 0.00 in0.0 mm
07:21 AM 55.8°F13.2°C 36.4°F2.4°C 48% 2.5 mph E4.0 kmh E 4.0 mph6.4 kmh 30.32 in1026.8 mb 0.00 in0.0 mm 0.00 in0.0 mm 0.00 in0.0 mm
07:16 AM 54.9°F12.7°C 36.0°F2.2°C 49% 2.7 mph E4.3 kmh E 4.0 mph6.4 kmh 30.32 in1026.8 mb 0.00 in0.0 mm 0.00 in0.0 mm 0.00 in0.0 mm
07:11 AM 53.8°F12.1°C 35.1°F1.7°C 49% 1.9 mph E3.1 kmh E 3.1 mph5.0 kmh 30.32 in1026.8 mb 0.00 in0.0 mm 0.00 in0.0 mm 0.00 in0.0 mm
07:06 AM 52.7°F11.5°C 34.7°F1.5°C 50% 2.2 mph E3.5 kmh E 3.8 mph6.1 kmh 30.32 in1026.8 mb 0.00 in0.0 mm 0.00 in0.0 mm 0.00 in0.0 mm
07:01 AM 51.7°F10.9°C 33.7°F0.9°C 50% 2.2 mph ESE3.5 kmh ESE 4.9 mph7.9 kmh 30.32 in1026.8 mb 0.00 in0.0 mm 0.00 in0.0 mm 0.00 in0.0 mm
06:55 AM 50.9°F10.5°C 33.5°F0.8°C 51% 4.3 mph E6.9 kmh E 4.9 mph7.9 kmh 30.32 in1026.8 mb 0.00 in0.0 mm 0.00 in0.0 mm 0.00 in0.0 mm
06:50 AM 50.4°F10.2°C 33.5°F0.8°C 52% 4.1 mph ESE6.6 kmh ESE 4.7 mph7.6 kmh 30.32 in1026.8 mb 0.00 in0.0 mm 0.00 in0.0 mm 0.00 in0.0 mm
06:45 AM 49.7°F9.8°C 33.2°F0.7°C 53% 2.5 mph E4.0 kmh E 4.0 mph6.4 kmh 30.32 in1026.8 mb 0.00 in0.0 mm 0.00 in0.0 mm 0.00 in0.0 mm
06:40 AM 48.6°F9.2°C 32.1°F0.1°C 53% Calm Calm 2.9 mph4.7 kmh 30.31 in1026.4 mb 0.00 in0.0 mm 0.00 in0.0 mm 0.00 in0.0 mm
06:35 AM 47.5°F8.6°C 31.1°F-0.5°C 53% 1.5 mph E2.4 kmh E 3.4 mph5.5 kmh 30.31 in1026.4 mb 0.00 in0.0 mm 0.00 in0.0 mm 0.00 in0.0 mm
06:30 AM 46.6°F8.1°C 29.9°F-1.2°C 52% 2.7 mph NE4.3 kmh NE 3.4 mph5.5 kmh 30.31 in1026.4 mb 0.00 in0.0 mm 0.00 in0.0 mm 0.00 in0.0 mm
06:25 AM 45.9°F7.7°C 30.2°F-1.0°C 54% 0.4 mph SE0.6 kmh SE 1.1 mph1.8 kmh 30.31 in1026.4 mb 0.00 in0.0 mm 0.00 in0.0 mm 0.00 in0.0 mm
06:20 AM 45.2°F7.3°C 29.0°F-1.7°C 53% 0.8 mph S1.3 kmh S 1.1 mph1.8 kmh 30.31 in1026.4 mb 0.00 in0.0 mm 0.00 in0.0 mm 0.00 in0.0 mm
06:15 AM 44.6°F7.0°C 28.1°F-2.2°C 52% Calm Calm 0.4 mph0.6 kmh 30.31 in1026.4 mb 0.00 in0.0 mm 0.00 in0.0 mm 0.00 in0.0 mm
06:10 AM 44.6°F7.0°C 27.6°F-2.4°C 51% Calm Calm 0.4 mph0.6 kmh 30.31 in1026.4 mb 0.00 in0.0 mm 0.00 in0.0 mm 0.00 in0.0 mm
06:06 AM 44.6°F7.0°C 27.6°F-2.4°C 51% 0.3 mph 0.5 kmh 0.4 mph0.6 kmh 30.30 in1026.1 mb 0.00 in0.0 mm 0.00 in0.0 mm 0.00 in0.0 mm
06:01 AM 45.0°F7.2°C 27.6°F-2.4°C 50% Calm Calm -- 30.31 in1026.4 mb 0.00 in0.0 mm 0.00 in0.0 mm 0.00 in0.0 mm
05:55 AM 45.0°F7.2°C 27.6°F-2.4°C 50% Calm Calm -- 30.30 in1026.1 mb 0.00 in0.0 mm 0.00 in0.0 mm 0.00 in0.0 mm
05:50 AM 45.0°F7.2°C 27.6°F-2.4°C 50% Calm Calm 0.4 mph0.6 kmh 30.30 in1026.1 mb 0.00 in0.0 mm 0.00 in0.0 mm 0.00 in0.0 mm
05:45 AM 45.0°F7.2°C 27.0°F-2.8°C 49% Calm Calm 0.4 mph0.6 kmh 30.30 in1026.1 mb 0.00 in0.0 mm 0.00 in0.0 mm 0.00 in0.0 mm
05:40 AM 45.0°F7.2°C 27.0°F-2.8°C 49% 0.4 mph 0.6 kmh 0.4 mph0.6 kmh 30.30 in1026.1 mb 0.00 in0.0 mm 0.00 in0.0 mm 0.00 in0.0 mm
05:35 AM 45.0°F7.2°C 27.0°F-2.8°C 49% Calm Calm 0.2 mph0.3 kmh 30.30 in1026.1 mb 0.00 in0.0 mm 0.00 in0.0 mm 0.00 in0.0 mm
05:30 AM 45.4°F7.4°C 27.3°F-2.6°C 49% 0.2 mph NNW0.3 kmh NNW 0.9 mph1.4 kmh 30.30 in1026.1 mb 0.00 in0.0 mm 0.00 in0.0 mm 0.00 in0.0 mm
05:25 AM 46.1°F7.8°C 27.4°F-2.6°C 48% 0.4 mph NNW0.6 kmh NNW 0.9 mph1.4 kmh 30.30 in1026.1 mb 0.00 in0.0 mm 0.00 in0.0 mm 0.00 in0.0 mm
05:20 AM 46.8°F8.2°C 28.1°F-2.2°C 48% Calm Calm 0.4 mph0.6 kmh 30.30 in1026.1 mb 0.00 in0.0 mm 0.00 in0.0 mm 0.00 in0.0 mm
05:15 AM 47.0°F8.3°C 27.6°F-2.4°C 47% 0.4 mph ESE0.6 kmh ESE 1.8 mph2.9 kmh 30.29 in1025.7 mb 0.00 in0.0 mm 0.00 in0.0 mm 0.00 in0.0 mm
05:10 AM 47.0°F8.3°C 27.6°F-2.4°C 47% 0.4 mph NNE0.6 kmh NNE 2.5 mph4.0 kmh 30.29 in1025.7 mb 0.00 in0.0 mm 0.00 in0.0 mm 0.00 in0.0 mm
05:05 AM 46.8°F8.2°C 27.0°F-2.8°C 46% 2.0 mph 3.2 kmh 2.5 mph4.0 kmh 30.29 in1025.7 mb 0.00 in0.0 mm 0.00 in0.0 mm 0.00 in0.0 mm
05:00 AM 46.8°F8.2°C 27.0°F-2.8°C 46% 1.9 mph 3.1 kmh 2.5 mph4.0 kmh 30.29 in1025.7 mb 0.00 in0.0 mm 0.00 in0.0 mm 0.00 in0.0 mm
04:55 AM 46.8°F8.2°C 27.0°F-2.8°C 46% 1.5 mph 2.4 kmh 2.5 mph4.0 kmh 30.28 in1025.4 mb 0.00 in0.0 mm 0.00 in0.0 mm 0.00 in0.0 mm
04:50 AM 47.0°F8.3°C 27.6°F-2.4°C 47% 1.1 mph 1.8 kmh 2.5 mph4.0 kmh 30.28 in1025.4 mb 0.00 in0.0 mm 0.00 in0.0 mm 0.00 in0.0 mm
04:45 AM 47.2°F8.4°C 27.8°F-2.3°C 47% 0.8 mph 1.3 kmh 1.8 mph2.9 kmh 30.28 in1025.4 mb 0.00 in0.0 mm 0.00 in0.0 mm 0.00 in0.0 mm
04:40 AM 47.3°F8.5°C 28.0°F-2.2°C 47% Calm Calm 1.1 mph1.8 kmh 30.28 in1025.4 mb 0.00 in0.0 mm 0.00 in0.0 mm 0.00 in0.0 mm
04:35 AM 47.7°F8.7°C 28.4°F-2.0°C 47% 0.4 mph ENE0.6 kmh ENE 3.1 mph5.0 kmh 30.28 in1025.4 mb 0.00 in0.0 mm 0.00 in0.0 mm 0.00 in0.0 mm
04:30 AM 47.7°F8.7°C 28.9°F-1.7°C 48% 2.3 mph E3.7 kmh E 4.0 mph6.4 kmh 30.28 in1025.4 mb 0.00 in0.0 mm 0.00 in0.0 mm 0.00 in0.0 mm
04:25 AM 47.3°F8.5°C 28.0°F-2.2°C 47% 3.3 mph E5.3 kmh E 4.7 mph7.6 kmh 30.28 in1025.4 mb 0.00 in0.0 mm 0.00 in0.0 mm 0.00 in0.0 mm
04:20 AM 47.3°F8.5°C 28.0°F-2.2°C 47% 3.8 mph E6.1 kmh E 4.7 mph7.6 kmh 30.28 in1025.4 mb 0.00 in0.0 mm 0.00 in0.0 mm 0.00 in0.0 mm
04:15 AM 47.7°F8.7°C 26.7°F-2.9°C 44% 4.2 mph E6.8 kmh E 4.5 mph7.2 kmh 30.28 in1025.4 mb 0.00 in0.0 mm 0.00 in0.0 mm 0.00 in0.0 mm
04:10 AM 48.1°F8.9°C 25.9°F-3.4°C 42% 0.4 mph E0.6 kmh E 3.4 mph5.5 kmh 30.28 in1025.4 mb 0.00 in0.0 mm 0.00 in0.0 mm 0.00 in0.0 mm
04:05 AM 48.6°F9.2°C 26.5°F-3.1°C 42% 1.5 mph 2.4 kmh 2.7 mph4.3 kmh 30.28 in1025.4 mb 0.00 in0.0 mm 0.00 in0.0 mm 0.00 in0.0 mm
04:00 AM 49.0°F9.4°C 26.7°F-2.9°C 42% Calm Calm 0.2 mph0.3 kmh 30.28 in1025.4 mb 0.00 in0.0 mm 0.00 in0.0 mm 0.00 in0.0 mm
03:55 AM 49.0°F9.4°C 26.7°F-2.9°C 42% 0.2 mph 0.3 kmh 0.2 mph0.3 kmh 30.28 in1025.4 mb 0.00 in0.0 mm 0.00 in0.0 mm 0.00 in0.0 mm
03:50 AM 48.6°F9.2°C 26.5°F-3.1°C 42% 0.2 mph ENE0.3 kmh ENE 0.2 mph0.3 kmh 30.28 in1025.4 mb 0.00 in0.0 mm 0.00 in0.0 mm 0.00 in0.0 mm
03:45 AM 48.2°F9.0°C 25.6°F-3.6°C 41% 0.2 mph NE0.3 kmh NE 0.4 mph0.6 kmh 30.28 in1025.4 mb 0.00 in0.0 mm 0.00 in0.0 mm 0.00 in0.0 mm
03:40 AM 48.2°F9.0°C 25.0°F-3.9°C 40% Calm Calm 1.6 mph2.6 kmh 30.28 in1025.4 mb 0.00 in0.0 mm 0.00 in0.0 mm 0.00 in0.0 mm
03:35 AM 48.4°F9.1°C 24.5°F-4.2°C 39% 1.4 mph 2.3 kmh 2.0 mph3.2 kmh 30.28 in1025.4 mb 0.00 in0.0 mm 0.00 in0.0 mm 0.00 in0.0 mm
03:30 AM 49.1°F9.5°C 25.1°F-3.8°C 39% 2.0 mph 3.2 kmh 2.0 mph3.2 kmh 30.28 in1025.4 mb 0.00 in0.0 mm 0.00 in0.0 mm 0.00 in0.0 mm
03:25 AM 49.5°F9.7°C 25.5°F-3.6°C 39% 0.2 mph NNE0.3 kmh NNE 1.8 mph2.9 kmh 30.28 in1025.4 mb 0.00 in0.0 mm 0.00 in0.0 mm 0.00 in0.0 mm
03:20 AM 49.5°F9.7°C 25.5°F-3.6°C 39% 1.7 mph 2.7 kmh 1.8 mph2.9 kmh 30.28 in1025.4 mb 0.00 in0.0 mm 0.00 in0.0 mm 0.00 in0.0 mm
03:15 AM 50.0°F10.0°C 25.9°F-3.4°C 39% 1.8 mph 2.9 kmh 1.8 mph2.9 kmh 30.28 in1025.4 mb 0.00 in0.0 mm 0.00 in0.0 mm 0.00 in0.0 mm
03:10 AM 50.6°F10.3°C 27.1°F-2.7°C 40% Calm Calm 1.1 mph1.8 kmh 30.28 in1025.4 mb 0.00 in0.0 mm 0.00 in0.0 mm 0.00 in0.0 mm
03:05 AM 50.9°F10.5°C 26.7°F-2.9°C 39% 0.6 mph NE1.0 kmh NE 1.6 mph2.6 kmh 30.28 in1025.4 mb 0.00 in0.0 mm 0.00 in0.0 mm 0.00 in0.0 mm
03:00 AM 51.7°F10.9°C 27.5°F-2.5°C 39% Calm Calm 3.6 mph5.8 kmh 30.28 in1025.4 mb 0.00 in0.0 mm 0.00 in0.0 mm 0.00 in0.0 mm
02:54 AM 51.8°F11.0°C 27.5°F-2.5°C 39% 2.6 mph NNE4.2 kmh NNE 4.0 mph6.4 kmh 30.28 in1025.4 mb 0.00 in0.0 mm 0.00 in0.0 mm 0.00 in0.0 mm
02:49 AM 52.2°F11.2°C 27.9°F-2.3°C 39% 3.5 mph 5.6 kmh 4.5 mph7.2 kmh 30.28 in1025.4 mb 0.00 in0.0 mm 0.00 in0.0 mm 0.00 in0.0 mm
02:44 AM 51.5°F10.8°C 27.9°F-2.3°C 40% 4.1 mph NNE6.6 kmh NNE 4.5 mph7.2 kmh 30.28 in1025.4 mb 0.00 in0.0 mm 0.00 in0.0 mm 0.00 in0.0 mm
02:39 AM 50.8°F10.4°C 25.9°F-3.4°C 38% 2.8 mph NNE4.5 kmh NNE 3.1 mph5.0 kmh 30.28 in1025.4 mb 0.00 in0.0 mm 0.00 in0.0 mm 0.00 in0.0 mm
02:34 AM 51.1°F10.6°C 26.3°F-3.2°C 38% 1.8 mph 2.9 kmh 2.5 mph4.0 kmh 30.28 in1025.4 mb 0.00 in0.0 mm 0.00 in0.0 mm 0.00 in0.0 mm
02:30 AM 51.5°F10.8°C 26.6°F-3.0°C 38% 1.7 mph N2.7 kmh N 2.5 mph4.0 kmh 30.28 in1025.4 mb 0.00 in0.0 mm 0.00 in0.0 mm 0.00 in0.0 mm
02:25 AM 51.5°F10.8°C 25.9°F-3.4°C 37% 1.5 mph 2.4 kmh 2.0 mph3.2 kmh 30.28 in1025.4 mb 0.00 in0.0 mm 0.00 in0.0 mm 0.00 in0.0 mm
02:20 AM 51.7°F10.9°C 26.0°F-3.3°C 37% 0.8 mph 1.3 kmh 1.6 mph2.6 kmh 30.28 in1025.4 mb 0.00 in0.0 mm 0.00 in0.0 mm 0.00 in0.0 mm
02:15 AM 51.8°F11.0°C 26.2°F-3.2°C 37% 0.2 mph ENE0.3 kmh ENE 1.1 mph1.8 kmh 30.28 in1025.4 mb 0.00 in0.0 mm 0.00 in0.0 mm 0.00 in0.0 mm
02:10 AM 52.0°F11.1°C 25.7°F-3.5°C 36% 1.1 mph NE1.8 kmh NE 1.1 mph1.8 kmh 30.28 in1025.4 mb 0.00 in0.0 mm 0.00 in0.0 mm 0.00 in0.0 mm
02:05 AM 52.6°F11.4°C 26.2°F-3.2°C 36% Calm Calm 0.9 mph1.4 kmh 30.28 in1025.4 mb 0.00 in0.0 mm 0.00 in0.0 mm 0.00 in0.0 mm
02:00 AM 52.6°F11.4°C 26.2°F-3.2°C 36% 0.2 mph 0.3 kmh 2.7 mph4.3 kmh 30.28 in1025.4 mb 0.00 in0.0 mm 0.00 in0.0 mm 0.00 in0.0 mm
01:54 AM 52.4°F11.3°C 26.0°F-3.3°C 36% 0.4 mph 0.6 kmh 3.1 mph5.0 kmh 30.27 in1025.1 mb 0.00 in0.0 mm 0.00 in0.0 mm 0.00 in0.0 mm
01:49 AM 52.6°F11.4°C 25.5°F-3.6°C 35% 2.6 mph 4.2 kmh 4.0 mph6.4 kmh 30.27 in1025.1 mb 0.00 in0.0 mm 0.00 in0.0 mm 0.00 in0.0 mm
01:44 AM 52.7°F11.5°C 26.4°F-3.1°C 36% 1.6 mph 2.6 kmh 4.0 mph6.4 kmh 30.27 in1025.1 mb 0.00 in0.0 mm 0.00 in0.0 mm 0.00 in0.0 mm
01:39 AM 52.7°F11.5°C 24.9°F-3.9°C 34% 2.6 mph 4.2 kmh 2.9 mph4.7 kmh 30.27 in1025.1 mb 0.00 in0.0 mm 0.00 in0.0 mm 0.00 in0.0 mm
01:34 AM 52.9°F11.6°C 24.5°F-4.2°C 33% 2.2 mph 3.5 kmh 2.5 mph4.0 kmh 30.27 in1025.1 mb 0.00 in0.0 mm 0.00 in0.0 mm 0.00 in0.0 mm
01:29 AM 53.6°F12.0°C 25.1°F-3.8°C 33% 1.8 mph 2.9 kmh 2.0 mph3.2 kmh 30.27 in1025.1 mb 0.00 in0.0 mm 0.00 in0.0 mm 0.00 in0.0 mm
01:24 AM 54.4°F12.4°C 25.7°F-3.5°C 33% 0.6 mph NNE1.0 kmh NNE 1.1 mph1.8 kmh 30.27 in1025.1 mb 0.00 in0.0 mm 0.00 in0.0 mm 0.00 in0.0 mm
01:19 AM 54.7°F12.6°C 25.3°F-3.7°C 32% 0.4 mph NE0.6 kmh NE 1.6 mph2.6 kmh 30.27 in1025.1 mb 0.00 in0.0 mm 0.00 in0.0 mm 0.00 in0.0 mm
01:14 AM 55.1°F12.8°C 26.3°F-3.2°C 33% 1.5 mph ENE2.4 kmh ENE 1.6 mph2.6 kmh 30.27 in1025.1 mb 0.00 in0.0 mm 0.00 in0.0 mm 0.00 in0.0 mm
01:09 AM 54.9°F12.7°C 25.5°F-3.6°C 32% 0.9 mph NNE1.4 kmh NNE 2.9 mph4.7 kmh 30.27 in1025.1 mb 0.00 in0.0 mm 0.00 in0.0 mm 0.00 in0.0 mm
01:04 AM 54.5°F12.5°C 25.1°F-3.8°C 32% 0.6 mph N1.0 kmh N 4.5 mph7.2 kmh 30.27 in1025.1 mb 0.00 in0.0 mm 0.00 in0.0 mm 0.00 in0.0 mm
12:59 AM 54.7°F12.6°C 25.3°F-3.7°C 32% 3.0 mph 4.8 kmh 4.5 mph7.2 kmh 30.27 in1025.1 mb 0.00 in0.0 mm 0.00 in0.0 mm 0.00 in0.0 mm
12:54 AM 54.7°F12.6°C 24.6°F-4.1°C 31% 3.0 mph 4.8 kmh 3.1 mph5.0 kmh 30.27 in1025.1 mb 0.00 in0.0 mm 0.00 in0.0 mm 0.00 in0.0 mm
12:49 AM 54.7°F12.6°C 24.6°F-4.1°C 31% 0.3 mph NNE0.5 kmh NNE 1.3 mph2.1 kmh 30.27 in1025.1 mb 0.00 in0.0 mm 0.00 in0.0 mm 0.00 in0.0 mm
12:44 AM 55.3°F12.9°C 23.4°F-4.8°C 29% 1.1 mph NNE1.8 kmh NNE 2.2 mph3.5 kmh 30.27 in1025.1 mb 0.00 in0.0 mm 0.00 in0.0 mm 0.00 in0.0 mm
12:39 AM 56.2°F13.4°C 24.2°F-4.3°C 29% 1.2 mph NNE1.9 kmh NNE 2.2 mph3.5 kmh 30.27 in1025.1 mb 0.00 in0.0 mm 0.00 in0.0 mm 0.00 in0.0 mm
12:34 AM 56.9°F13.8°C 23.9°F-4.5°C 28% 1.8 mph NNE2.9 kmh NNE 1.8 mph2.9 kmh 30.27 in1025.1 mb 0.00 in0.0 mm 0.00 in0.0 mm 0.00 in0.0 mm
12:29 AM 57.2°F14.0°C 25.1°F-3.8°C 29% Calm Calm -- 30.27 in1025.1 mb 0.00 in0.0 mm 0.00 in0.0 mm 0.00 in0.0 mm
12:24 AM 57.6°F14.2°C 25.5°F-3.6°C 29% Calm Calm -- 30.27 in1025.1 mb 0.00 in0.0 mm 0.00 in0.0 mm 0.00 in0.0 mm
12:19 AM 57.8°F14.3°C 24.7°F-4.1°C 28% Calm Calm -- 30.27 in1025.1 mb 0.00 in0.0 mm 0.00 in0.0 mm 0.00 in0.0 mm
12:14 AM 58.1°F14.5°C 25.0°F-3.9°C 28% Calm Calm -- 30.27 in1025.1 mb 0.00 in0.0 mm 0.00 in0.0 mm 0.00 in0.0 mm
12:09 AM 58.5°F14.7°C 24.3°F-4.3°C 27% Calm Calm -- 30.27 in1025.1 mb 0.00 in0.0 mm 0.00 in0.0 mm 0.00 in0.0 mm
12:04 AM 59.0°F15.0°C 24.9°F-3.9°C 27% Calm Calm -- 30.27 in1025.1 mb 0.00 in0.0 mm 0.00 in0.0 mm 0.00 in0.0 mm